sensor_id;sensor_type;location;lat;lon;timestamp;temperature;humidity
37268;DHT22;23154;52.542;13.362;2022-12-16T00:01:35;-6.00;99.90
37268;DHT22;23154;52.542;13.362;2022-12-16T00:04:01;-6.00;99.90
37268;DHT22;23154;52.542;13.362;2022-12-16T00:06:28;-6.00;99.90
37268;DHT22;23154;52.542;13.362;2022-12-16T00:08:54;-6.00;99.90
37268;DHT22;23154;52.542;13.362;2022-12-16T00:11:22;-6.10;99.90
37268;DHT22;23154;52.542;13.362;2022-12-16T00:13:47;-6.10;99.90
37268;DHT22;23154;52.542;13.362;2022-12-16T00:16:14;-6.10;99.90
37268;DHT22;23154;52.542;13.362;2022-12-16T00:18:40;-6.10;99.90
37268;DHT22;23154;52.542;13.362;2022-12-16T00:21:06;-6.10;99.90
37268;DHT22;23154;52.542;13.362;2022-12-16T00:23:32;-6.10;99.90
37268;DHT22;23154;52.542;13.362;2022-12-16T00:25:57;-6.20;99.90
37268;DHT22;23154;52.542;13.362;2022-12-16T00:28:23;-6.30;99.90
37268;DHT22;23154;52.542;13.362;2022-12-16T00:30:50;-6.20;99.90
37268;DHT22;23154;52.542;13.362;2022-12-16T00:33:16;-6.30;99.90
37268;DHT22;23154;52.542;13.362;2022-12-16T00:35:42;-6.40;99.90
37268;DHT22;23154;52.542;13.362;2022-12-16T00:38:08;-6.40;99.90
37268;DHT22;23154;52.542;13.362;2022-12-16T00:40:33;-6.30;99.90
37268;DHT22;23154;52.542;13.362;2022-12-16T00:42:59;-6.40;99.90
37268;DHT22;23154;52.542;13.362;2022-12-16T00:45:24;-6.40;99.90
37268;DHT22;23154;52.542;13.362;2022-12-16T00:47:51;-6.50;99.90
37268;DHT22;23154;52.542;13.362;2022-12-16T00:50:17;-6.50;99.90
37268;DHT22;23154;52.542;13.362;2022-12-16T00:52:43;-6.60;99.90
37268;DHT22;23154;52.542;13.362;2022-12-16T00:55:08;-6.50;99.90
37268;DHT22;23154;52.542;13.362;2022-12-16T00:57:34;-6.50;99.90
37268;DHT22;23154;52.542;13.362;2022-12-16T00:59:59;-6.50;99.90
37268;DHT22;23154;52.542;13.362;2022-12-16T01:02:25;-6.40;99.90
37268;DHT22;23154;52.542;13.362;2022-12-16T01:04:51;-6.40;99.90
37268;DHT22;23154;52.542;13.362;2022-12-16T01:07:16;-6.30;99.90
37268;DHT22;23154;52.542;13.362;2022-12-16T01:09:42;-6.40;99.90
37268;DHT22;23154;52.542;13.362;2022-12-16T01:12:07;-6.40;99.90
37268;DHT22;23154;52.542;13.362;2022-12-16T01:14:33;-6.50;99.90
37268;DHT22;23154;52.542;13.362;2022-12-16T01:16:58;-6.40;99.90
37268;DHT22;23154;52.542;13.362;2022-12-16T01:19:25;-6.40;99.90
37268;DHT22;23154;52.542;13.362;2022-12-16T01:21:50;-6.50;99.90
37268;DHT22;23154;52.542;13.362;2022-12-16T01:24:16;-6.50;99.90
37268;DHT22;23154;52.542;13.362;2022-12-16T01:26:41;-6.40;99.90
37268;DHT22;23154;52.542;13.362;2022-12-16T01:29:07;-6.30;99.90
37268;DHT22;23154;52.542;13.362;2022-12-16T01:31:32;-6.10;99.90
37268;DHT22;23154;52.542;13.362;2022-12-16T01:33:58;-6.20;99.90
37268;DHT22;23154;52.542;13.362;2022-12-16T01:36:23;-6.20;99.90
37268;DHT22;23154;52.542;13.362;2022-12-16T01:38:50;-6.20;99.90
37268;DHT22;23154;52.542;13.362;2022-12-16T01:41:16;-6.30;99.90
37268;DHT22;23154;52.542;13.362;2022-12-16T01:43:43;-6.40;99.90
37268;DHT22;23154;52.542;13.362;2022-12-16T01:46:17;-6.40;99.90
37268;DHT22;23154;52.542;13.362;2022-12-16T01:53:51;-6.50;99.90
37268;DHT22;23154;52.542;13.362;2022-12-16T01:56:21;-6.50;99.90
37268;DHT22;23154;52.542;13.362;2022-12-16T01:58:47;-6.50;99.90
37268;DHT22;23154;52.542;13.362;2022-12-16T02:01:13;-6.50;99.90
37268;DHT22;23154;52.542;13.362;2022-12-16T02:03:40;-6.50;99.90
37268;DHT22;23154;52.542;13.362;2022-12-16T02:06:06;-6.40;99.90
37268;DHT22;23154;52.542;13.362;2022-12-16T02:08:32;-6.30;99.90
37268;DHT22;23154;52.542;13.362;2022-12-16T02:21:25;-6.60;99.90
37268;DHT22;23154;52.542;13.362;2022-12-16T02:24:00;-6.60;99.90
37268;DHT22;23154;52.542;13.362;2022-12-16T02:34:06;-6.50;99.90
37268;DHT22;23154;52.542;13.362;2022-12-16T02:39:11;-6.20;99.90
37268;DHT22;23154;52.542;13.362;2022-12-16T02:44:16;-6.30;99.90
37268;DHT22;23154;52.542;13.362;2022-12-16T02:46:42;-6.40;99.90
37268;DHT22;23154;52.542;13.362;2022-12-16T02:51:37;-6.50;99.90
37268;DHT22;23154;52.542;13.362;2022-12-16T02:54:03;-6.40;99.90
37268;DHT22;23154;52.542;13.362;2022-12-16T02:56:45;-6.50;99.90
37268;DHT22;23154;52.542;13.362;2022-12-16T02:59:16;-6.60;99.90
37268;DHT22;23154;52.542;13.362;2022-12-16T03:01:46;-6.50;99.90
37268;DHT22;23154;52.542;13.362;2022-12-16T03:04:20;-6.50;99.90
37268;DHT22;23154;52.542;13.362;2022-12-16T03:06:47;-6.60;99.90
37268;DHT22;23154;52.542;13.362;2022-12-16T03:09:14;-6.70;99.90
37268;DHT22;23154;52.542;13.362;2022-12-16T03:11:41;-6.70;99.90
37268;DHT22;23154;52.542;13.362;2022-12-16T03:14:09;-6.60;99.90
37268;DHT22;23154;52.542;13.362;2022-12-16T03:16:35;-6.70;99.90
37268;DHT22;23154;52.542;13.362;2022-12-16T03:19:02;-6.70;99.90
37268;DHT22;23154;52.542;13.362;2022-12-16T03:21:29;-6.70;99.90
37268;DHT22;23154;52.542;13.362;2022-12-16T03:23:57;-6.70;99.90
37268;DHT22;23154;52.542;13.362;2022-12-16T03:26:28;-6.70;99.90
37268;DHT22;23154;52.542;13.362;2022-12-16T03:29:02;-6.80;99.90
37268;DHT22;23154;52.542;13.362;2022-12-16T03:31:33;-6.60;99.90
37268;DHT22;23154;52.542;13.362;2022-12-16T03:34:16;-6.50;99.90
37268;DHT22;23154;52.542;13.362;2022-12-16T03:36:48;-6.50;99.90
37268;DHT22;23154;52.542;13.362;2022-12-16T03:39:15;-6.50;99.90
37268;DHT22;23154;52.542;13.362;2022-12-16T03:41:42;-6.40;99.90
37268;DHT22;23154;52.542;13.362;2022-12-16T03:44:08;-6.50;99.90
37268;DHT22;23154;52.542;13.362;2022-12-16T03:46:34;-6.60;99.90
37268;DHT22;23154;52.542;13.362;2022-12-16T03:49:00;-6.70;99.90
37268;DHT22;23154;52.542;13.362;2022-12-16T03:51:26;-6.70;99.90
37268;DHT22;23154;52.542;13.362;2022-12-16T03:53:51;-6.70;99.90
37268;DHT22;23154;52.542;13.362;2022-12-16T03:56:17;-6.70;99.90
37268;DHT22;23154;52.542;13.362;2022-12-16T03:58:42;-6.80;99.90
37268;DHT22;23154;52.542;13.362;2022-12-16T04:01:08;-6.80;99.90
37268;DHT22;23154;52.542;13.362;2022-12-16T04:03:34;-6.70;99.90
37268;DHT22;23154;52.542;13.362;2022-12-16T04:06:00;-6.70;99.90
37268;DHT22;23154;52.542;13.362;2022-12-16T04:08:26;-6.70;99.90
37268;DHT22;23154;52.542;13.362;2022-12-16T04:10:51;-6.80;99.90
37268;DHT22;23154;52.542;13.362;2022-12-16T04:13:35;-6.90;99.90
37268;DHT22;23154;52.542;13.362;2022-12-16T04:16:20;-6.80;99.90
37268;DHT22;23154;52.542;13.362;2022-12-16T04:19:04;-6.90;99.90
37268;DHT22;23154;52.542;13.362;2022-12-16T04:22:02;-6.90;99.90
37268;DHT22;23154;52.542;13.362;2022-12-16T04:24:46;-6.80;99.90
37268;DHT22;23154;52.542;13.362;2022-12-16T04:27:11;-6.70;99.90
37268;DHT22;23154;52.542;13.362;2022-12-16T04:29:57;-6.70;99.90
37268;DHT22;23154;52.542;13.362;2022-12-16T04:32:41;-6.80;99.90
37268;DHT22;23154;52.542;13.362;2022-12-16T04:35:26;-6.90;99.90
37268;DHT22;23154;52.542;13.362;2022-12-16T04:38:10;-6.90;99.90
37268;DHT22;23154;52.542;13.362;2022-12-16T04:40:54;-7.00;99.90
37268;DHT22;23154;52.542;13.362;2022-12-16T04:43:39;-6.80;99.90
37268;DHT22;23154;52.542;13.362;2022-12-16T04:46:23;-6.80;99.90
37268;DHT22;23154;52.542;13.362;2022-12-16T04:49:07;-6.70;99.90
37268;DHT22;23154;52.542;13.362;2022-12-16T04:51:52;-6.80;99.90
37268;DHT22;23154;52.542;13.362;2022-12-16T04:54:36;-6.70;99.90
37268;DHT22;23154;52.542;13.362;2022-12-16T04:57:20;-6.70;99.90
37268;DHT22;23154;52.542;13.362;2022-12-16T05:00:04;-6.60;99.90
37268;DHT22;23154;52.542;13.362;2022-12-16T05:02:49;-6.70;99.90
37268;DHT22;23154;52.542;13.362;2022-12-16T05:05:33;-6.70;99.90
37268;DHT22;23154;52.542;13.362;2022-12-16T05:08:17;-6.70;99.90
37268;DHT22;23154;52.542;13.362;2022-12-16T05:11:01;-6.70;99.90
37268;DHT22;23154;52.542;13.362;2022-12-16T05:13:45;-6.70;99.90
37268;DHT22;23154;52.542;13.362;2022-12-16T05:16:30;-6.60;99.90
37268;DHT22;23154;52.542;13.362;2022-12-16T05:19:14;-6.60;99.90
37268;DHT22;23154;52.542;13.362;2022-12-16T05:21:58;-6.70;99.90
37268;DHT22;23154;52.542;13.362;2022-12-16T05:24:42;-6.80;99.90
37268;DHT22;23154;52.542;13.362;2022-12-16T05:27:26;-6.70;99.90
37268;DHT22;23154;52.542;13.362;2022-12-16T05:30:10;-6.80;99.90
37268;DHT22;23154;52.542;13.362;2022-12-16T05:32:55;-6.80;99.90
37268;DHT22;23154;52.542;13.362;2022-12-16T05:35:39;-6.80;99.90
37268;DHT22;23154;52.542;13.362;2022-12-16T05:38:23;-6.80;99.90
37268;DHT22;23154;52.542;13.362;2022-12-16T05:41:07;-6.90;99.90
37268;DHT22;23154;52.542;13.362;2022-12-16T05:43:52;-6.90;99.90
37268;DHT22;23154;52.542;13.362;2022-12-16T05:46:36;-6.90;99.90
37268;DHT22;23154;52.542;13.362;2022-12-16T05:49:20;-6.90;99.90
37268;DHT22;23154;52.542;13.362;2022-12-16T05:52:04;-6.80;99.90
37268;DHT22;23154;52.542;13.362;2022-12-16T05:54:49;-6.90;99.90
37268;DHT22;23154;52.542;13.362;2022-12-16T05:57:33;-6.80;99.90
37268;DHT22;23154;52.542;13.362;2022-12-16T06:00:18;-6.80;99.90
37268;DHT22;23154;52.542;13.362;2022-12-16T06:03:02;-6.70;99.90
37268;DHT22;23154;52.542;13.362;2022-12-16T06:05:47;-6.90;99.90
37268;DHT22;23154;52.542;13.362;2022-12-16T06:08:31;-6.90;99.90
37268;DHT22;23154;52.542;13.362;2022-12-16T06:11:15;-6.90;99.90
37268;DHT22;23154;52.542;13.362;2022-12-16T06:13:59;-6.90;99.90
37268;DHT22;23154;52.542;13.362;2022-12-16T06:16:43;-7.10;99.90
37268;DHT22;23154;52.542;13.362;2022-12-16T06:19:29;-7.10;99.90
37268;DHT22;23154;52.542;13.362;2022-12-16T06:22:13;-6.90;99.90
37268;DHT22;23154;52.542;13.362;2022-12-16T06:24:57;-6.90;99.90
37268;DHT22;23154;52.542;13.362;2022-12-16T06:27:41;-6.90;99.90
37268;DHT22;23154;52.542;13.362;2022-12-16T06:30:25;-6.80;99.90
37268;DHT22;23154;52.542;13.362;2022-12-16T06:33:09;-6.80;99.90
37268;DHT22;23154;52.542;13.362;2022-12-16T06:35:54;-6.70;99.90
37268;DHT22;23154;52.542;13.362;2022-12-16T06:38:38;-6.80;99.90
37268;DHT22;23154;52.542;13.362;2022-12-16T06:41:34;-6.80;99.90
37268;DHT22;23154;52.542;13.362;2022-12-16T06:44:18;-6.80;99.90
37268;DHT22;23154;52.542;13.362;2022-12-16T06:47:02;-6.90;99.90
37268;DHT22;23154;52.542;13.362;2022-12-16T06:49:47;-6.90;99.90
37268;DHT22;23154;52.542;13.362;2022-12-16T06:52:31;-6.80;99.90
37268;DHT22;23154;52.542;13.362;2022-12-16T06:55:15;-6.90;99.90
37268;DHT22;23154;52.542;13.362;2022-12-16T06:58:00;-6.80;99.90
37268;DHT22;23154;52.542;13.362;2022-12-16T07:00:45;-6.70;99.90
37268;DHT22;23154;52.542;13.362;2022-12-16T07:03:29;-6.80;99.90
37268;DHT22;23154;52.542;13.362;2022-12-16T07:06:13;-6.80;99.90
37268;DHT22;23154;52.542;13.362;2022-12-16T07:08:58;-6.80;99.90
37268;DHT22;23154;52.542;13.362;2022-12-16T07:11:46;-6.90;99.90
37268;DHT22;23154;52.542;13.362;2022-12-16T07:14:31;-6.90;99.90
37268;DHT22;23154;52.542;13.362;2022-12-16T07:17:15;-7.00;99.90
37268;DHT22;23154;52.542;13.362;2022-12-16T07:20:03;-6.90;99.90
37268;DHT22;23154;52.542;13.362;2022-12-16T07:22:56;-7.00;99.90
37268;DHT22;23154;52.542;13.362;2022-12-16T07:25:40;-7.00;99.90
37268;DHT22;23154;52.542;13.362;2022-12-16T07:28:24;-7.00;99.90
37268;DHT22;23154;52.542;13.362;2022-12-16T07:31:09;-7.00;99.90
37268;DHT22;23154;52.542;13.362;2022-12-16T07:33:53;-6.90;99.90
37268;DHT22;23154;52.542;13.362;2022-12-16T07:36:37;-6.90;99.90
37268;DHT22;23154;52.542;13.362;2022-12-16T07:39:21;-7.00;99.90
37268;DHT22;23154;52.542;13.362;2022-12-16T07:42:06;-7.00;99.90
37268;DHT22;23154;52.542;13.362;2022-12-16T07:44:50;-6.90;99.90
37268;DHT22;23154;52.542;13.362;2022-12-16T07:47:34;-6.90;99.90
37268;DHT22;23154;52.542;13.362;2022-12-16T07:50:19;-6.80;99.90
37268;DHT22;23154;52.542;13.362;2022-12-16T07:53:03;-6.80;99.90
37268;DHT22;23154;52.542;13.362;2022-12-16T07:55:49;-6.90;99.90
37268;DHT22;23154;52.542;13.362;2022-12-16T07:58:33;-6.80;99.90
37268;DHT22;23154;52.542;13.362;2022-12-16T08:01:18;-6.80;99.90
37268;DHT22;23154;52.542;13.362;2022-12-16T08:04:02;-6.80;99.90
37268;DHT22;23154;52.542;13.362;2022-12-16T08:06:46;-6.60;99.90
37268;DHT22;23154;52.542;13.362;2022-12-16T08:09:31;-6.60;99.90
37268;DHT22;23154;52.542;13.362;2022-12-16T08:12:15;-6.60;99.90
37268;DHT22;23154;52.542;13.362;2022-12-16T08:14:59;-6.60;99.90
37268;DHT22;23154;52.542;13.362;2022-12-16T08:17:47;-6.70;99.90
37268;DHT22;23154;52.542;13.362;2022-12-16T08:20:31;-6.70;99.90
37268;DHT22;23154;52.542;13.362;2022-12-16T08:23:16;-6.60;99.90
37268;DHT22;23154;52.542;13.362;2022-12-16T08:26:00;-6.50;99.90
37268;DHT22;23154;52.542;13.362;2022-12-16T08:28:44;-6.40;99.90
37268;DHT22;23154;52.542;13.362;2022-12-16T08:31:29;-6.20;99.90
37268;DHT22;23154;52.542;13.362;2022-12-16T08:34:13;-6.00;99.90
37268;DHT22;23154;52.542;13.362;2022-12-16T08:36:57;-5.90;99.90
37268;DHT22;23154;52.542;13.362;2022-12-16T08:39:42;-5.70;99.90
37268;DHT22;23154;52.542;13.362;2022-12-16T08:42:27;-5.40;99.90
37268;DHT22;23154;52.542;13.362;2022-12-16T08:45:13;-5.30;99.90
37268;DHT22;23154;52.542;13.362;2022-12-16T08:47:58;-5.10;99.90
37268;DHT22;23154;52.542;13.362;2022-12-16T08:50:42;-4.80;99.90
37268;DHT22;23154;52.542;13.362;2022-12-16T08:53:26;-4.60;99.90
37268;DHT22;23154;52.542;13.362;2022-12-16T08:56:10;-4.80;99.90
37268;DHT22;23154;52.542;13.362;2022-12-16T08:58:54;-4.80;99.90
37268;DHT22;23154;52.542;13.362;2022-12-16T09:01:39;-4.70;99.90
37268;DHT22;23154;52.542;13.362;2022-12-16T09:04:23;-4.80;99.90
37268;DHT22;23154;52.542;13.362;2022-12-16T09:07:07;-4.60;99.90
37268;DHT22;23154;52.542;13.362;2022-12-16T09:09:51;-4.70;99.90
37268;DHT22;23154;52.542;13.362;2022-12-16T09:12:36;-4.70;99.90
37268;DHT22;23154;52.542;13.362;2022-12-16T09:15:21;-4.60;99.90
37268;DHT22;23154;52.542;13.362;2022-12-16T09:18:06;-4.60;99.90
37268;DHT22;23154;52.542;13.362;2022-12-16T09:20:51;-4.70;99.90
37268;DHT22;23154;52.542;13.362;2022-12-16T09:23:36;-4.60;99.90
37268;DHT22;23154;52.542;13.362;2022-12-16T09:26:20;-4.60;99.90
37268;DHT22;23154;52.542;13.362;2022-12-16T09:29:04;-4.30;99.90
37268;DHT22;23154;52.542;13.362;2022-12-16T09:31:48;-4.30;99.90
37268;DHT22;23154;52.542;13.362;2022-12-16T09:34:34;-4.30;99.90
37268;DHT22;23154;52.542;13.362;2022-12-16T09:37:18;-4.10;99.90
37268;DHT22;23154;52.542;13.362;2022-12-16T09:40:03;-4.00;99.90
37268;DHT22;23154;52.542;13.362;2022-12-16T09:42:50;-4.30;99.90
37268;DHT22;23154;52.542;13.362;2022-12-16T09:48:50;-4.20;99.90
37268;DHT22;23154;52.542;13.362;2022-12-16T09:51:37;-4.10;99.90
37268;DHT22;23154;52.542;13.362;2022-12-16T09:54:23;-3.90;99.90
37268;DHT22;23154;52.542;13.362;2022-12-16T09:57:10;-4.00;99.90
37268;DHT22;23154;52.542;13.362;2022-12-16T09:59:56;-3.80;99.90
37268;DHT22;23154;52.542;13.362;2022-12-16T10:02:41;-3.80;99.90
37268;DHT22;23154;52.542;13.362;2022-12-16T10:05:29;-3.60;99.90
37268;DHT22;23154;52.542;13.362;2022-12-16T10:08:37;-3.40;99.90
37268;DHT22;23154;52.542;13.362;2022-12-16T10:14:38;-3.60;99.90
37268;DHT22;23154;52.542;13.362;2022-12-16T10:17:24;-3.50;99.90
37268;DHT22;23154;52.542;13.362;2022-12-16T10:23:04;-3.10;99.90
37268;DHT22;23154;52.542;13.362;2022-12-16T10:29:25;-2.70;99.90
37268;DHT22;23154;52.542;13.362;2022-12-16T10:32:18;-2.70;99.90
37268;DHT22;23154;52.542;13.362;2022-12-16T10:35:16;-2.60;99.90
37268;DHT22;23154;52.542;13.362;2022-12-16T10:38:01;-2.50;99.90
37268;DHT22;23154;52.542;13.362;2022-12-16T10:40:47;-2.70;99.90
37268;DHT22;23154;52.542;13.362;2022-12-16T10:43:37;-2.50;99.90
37268;DHT22;23154;52.542;13.362;2022-12-16T10:46:23;-2.50;99.90
37268;DHT22;23154;52.542;13.362;2022-12-16T10:49:10;-2.60;99.90
37268;DHT22;23154;52.542;13.362;2022-12-16T10:51:56;-2.50;99.90
37268;DHT22;23154;52.542;13.362;2022-12-16T10:54:41;-2.50;99.90
37268;DHT22;23154;52.542;13.362;2022-12-16T11:00:13;-2.60;99.90
37268;DHT22;23154;52.542;13.362;2022-12-16T11:03:15;-2.50;99.90
37268;DHT22;23154;52.542;13.362;2022-12-16T11:06:00;-2.70;99.90
37268;DHT22;23154;52.542;13.362;2022-12-16T11:08:44;-2.60;99.90
37268;DHT22;23154;52.542;13.362;2022-12-16T11:11:29;-2.60;99.90
37268;DHT22;23154;52.542;13.362;2022-12-16T11:17:17;-2.50;99.90
37268;DHT22;23154;52.542;13.362;2022-12-16T11:26:12;-2.20;99.90
37268;DHT22;23154;52.542;13.362;2022-12-16T11:29:18;-2.10;99.90
37268;DHT22;23154;52.542;13.362;2022-12-16T11:32:15;-2.00;99.90
37268;DHT22;23154;52.542;13.362;2022-12-16T11:35:02;-2.20;99.90
37268;DHT22;23154;52.542;13.362;2022-12-16T11:37:46;-2.00;99.90
37268;DHT22;23154;52.542;13.362;2022-12-16T11:40:31;-2.00;99.90
37268;DHT22;23154;52.542;13.362;2022-12-16T11:43:16;-1.90;99.90
37268;DHT22;23154;52.542;13.362;2022-12-16T11:46:02;-1.90;99.90
37268;DHT22;23154;52.542;13.362;2022-12-16T11:49:10;-1.80;99.90
37268;DHT22;23154;52.542;13.362;2022-12-16T11:51:59;-1.60;99.90
37268;DHT22;23154;52.542;13.362;2022-12-16T11:54:49;-1.60;99.90
37268;DHT22;23154;52.542;13.362;2022-12-16T11:58:23;-1.60;99.90
37268;DHT22;23154;52.542;13.362;2022-12-16T12:00:43;-1.60;99.90
37268;DHT22;23154;52.542;13.362;2022-12-16T12:03:31;-1.50;99.90
37268;DHT22;23154;52.542;13.362;2022-12-16T12:09:15;-1.40;99.90
37268;DHT22;23154;52.542;13.362;2022-12-16T12:14:56;-1.50;99.90
37268;DHT22;23154;52.542;13.362;2022-12-16T12:17:46;-1.40;99.90
37268;DHT22;23154;52.542;13.362;2022-12-16T12:20:38;-1.30;99.90
37268;DHT22;23154;52.542;13.362;2022-12-16T12:26:30;-1.50;99.90
37268;DHT22;23154;52.542;13.362;2022-12-16T12:34:44;-1.30;99.90
37268;DHT22;23154;52.542;13.362;2022-12-16T12:37:35;-1.40;99.90
37268;DHT22;23154;52.542;13.362;2022-12-16T12:43:31;-1.30;99.90
37268;DHT22;23154;52.542;13.362;2022-12-16T12:46:25;-1.30;99.90
37268;DHT22;23154;52.542;13.362;2022-12-16T12:57:56;-1.50;99.90
37268;DHT22;23154;52.542;13.362;2022-12-16T13:00:43;-1.50;99.90
37268;DHT22;23154;52.542;13.362;2022-12-16T13:06:16;-1.50;99.90
37268;DHT22;23154;52.542;13.362;2022-12-16T13:09:01;-1.50;99.90
37268;DHT22;23154;52.542;13.362;2022-12-16T13:20:40;-1.40;99.90
37268;DHT22;23154;52.542;13.362;2022-12-16T13:26:12;-1.60;99.90
37268;DHT22;23154;52.542;13.362;2022-12-16T13:32:01;-1.50;99.90
37268;DHT22;23154;52.542;13.362;2022-12-16T13:34:45;-1.50;99.90
37268;DHT22;23154;52.542;13.362;2022-12-16T13:37:29;-1.50;99.90
37268;DHT22;23154;52.542;13.362;2022-12-16T13:40:21;-1.60;99.90
37268;DHT22;23154;52.542;13.362;2022-12-16T13:46:37;-1.50;99.90
37268;DHT22;23154;52.542;13.362;2022-12-16T13:52:20;-1.50;99.90
37268;DHT22;23154;52.542;13.362;2022-12-16T13:55:10;-1.50;99.90
37268;DHT22;23154;52.542;13.362;2022-12-16T13:57:56;-1.50;99.90
37268;DHT22;23154;52.542;13.362;2022-12-16T14:00:42;-1.50;99.90
37268;DHT22;23154;52.542;13.362;2022-12-16T14:03:38;-1.50;99.90
37268;DHT22;23154;52.542;13.362;2022-12-16T14:06:23;-1.60;99.90
37268;DHT22;23154;52.542;13.362;2022-12-16T14:09:16;-1.70;99.90
37268;DHT22;23154;52.542;13.362;2022-12-16T14:12:08;-1.80;99.90
37268;DHT22;23154;52.542;13.362;2022-12-16T14:15:09;-1.90;99.90
37268;DHT22;23154;52.542;13.362;2022-12-16T14:18:00;-1.70;99.90
37268;DHT22;23154;52.542;13.362;2022-12-16T14:20:53;-1.70;99.90
37268;DHT22;23154;52.542;13.362;2022-12-16T14:23:56;-1.70;99.90
37268;DHT22;23154;52.542;13.362;2022-12-16T14:26:43;-1.90;99.90
37268;DHT22;23154;52.542;13.362;2022-12-16T14:29:29;-1.90;99.90
37268;DHT22;23154;52.542;13.362;2022-12-16T14:32:25;-2.00;99.90
37268;DHT22;23154;52.542;13.362;2022-12-16T14:35:31;-1.90;99.90
37268;DHT22;23154;52.542;13.362;2022-12-16T14:38:19;-1.80;99.90
37268;DHT22;23154;52.542;13.362;2022-12-16T14:41:06;-1.80;99.90
37268;DHT22;23154;52.542;13.362;2022-12-16T14:43:53;-1.80;99.90
37268;DHT22;23154;52.542;13.362;2022-12-16T14:46:38;-1.90;99.90
37268;DHT22;23154;52.542;13.362;2022-12-16T14:49:23;-1.80;99.90
37268;DHT22;23154;52.542;13.362;2022-12-16T14:52:20;-1.90;99.90
37268;DHT22;23154;52.542;13.362;2022-12-16T14:55:15;-1.90;99.90
37268;DHT22;23154;52.542;13.362;2022-12-16T14:58:07;-1.90;99.90
37268;DHT22;23154;52.542;13.362;2022-12-16T15:00:51;-2.00;99.90
37268;DHT22;23154;52.542;13.362;2022-12-16T15:03:37;-2.00;99.90
37268;DHT22;23154;52.542;13.362;2022-12-16T15:06:40;-2.00;99.90
37268;DHT22;23154;52.542;13.362;2022-12-16T15:09:27;-2.10;99.90
37268;DHT22;23154;52.542;13.362;2022-12-16T15:12:12;-2.10;99.90
37268;DHT22;23154;52.542;13.362;2022-12-16T15:14:58;-2.20;99.90
37268;DHT22;23154;52.542;13.362;2022-12-16T15:54:29;-2.30;99.90
37268;DHT22;23154;52.542;13.362;2022-12-16T15:57:31;-2.40;99.90
37268;DHT22;23154;52.542;13.362;2022-12-16T16:00:25;-2.40;99.90
37268;DHT22;23154;52.542;13.362;2022-12-16T16:03:20;-2.40;99.90
37268;DHT22;23154;52.542;13.362;2022-12-16T16:06:16;-2.30;99.90
37268;DHT22;23154;52.542;13.362;2022-12-16T16:09:00;-2.30;99.90
37268;DHT22;23154;52.542;13.362;2022-12-16T16:11:45;-2.40;99.90
37268;DHT22;23154;52.542;13.362;2022-12-16T16:14:29;-2.50;99.90
37268;DHT22;23154;52.542;13.362;2022-12-16T16:17:20;-2.60;99.90
37268;DHT22;23154;52.542;13.362;2022-12-16T16:20:05;-2.60;99.90
37268;DHT22;23154;52.542;13.362;2022-12-16T16:22:51;-2.50;99.90
37268;DHT22;23154;52.542;13.362;2022-12-16T16:25:35;-2.30;99.90
37268;DHT22;23154;52.542;13.362;2022-12-16T16:28:19;-2.50;99.90
37268;DHT22;23154;52.542;13.362;2022-12-16T16:31:03;-2.40;99.90
37268;DHT22;23154;52.542;13.362;2022-12-16T16:33:47;-2.40;99.90
37268;DHT22;23154;52.542;13.362;2022-12-16T16:36:32;-2.50;99.90
37268;DHT22;23154;52.542;13.362;2022-12-16T16:39:16;-2.40;99.90
37268;DHT22;23154;52.542;13.362;2022-12-16T16:42:00;-2.30;99.90
37268;DHT22;23154;52.542;13.362;2022-12-16T16:44:46;-2.30;99.90
37268;DHT22;23154;52.542;13.362;2022-12-16T16:47:30;-2.30;99.90
37268;DHT22;23154;52.542;13.362;2022-12-16T16:50:15;-2.30;99.90
37268;DHT22;23154;52.542;13.362;2022-12-16T16:52:59;-2.40;99.90
37268;DHT22;23154;52.542;13.362;2022-12-16T16:55:43;-2.40;99.90
37268;DHT22;23154;52.542;13.362;2022-12-16T16:58:28;-2.50;99.90
37268;DHT22;23154;52.542;13.362;2022-12-16T17:01:15;-2.50;99.90
37268;DHT22;23154;52.542;13.362;2022-12-16T17:04:00;-2.60;99.90
37268;DHT22;23154;52.542;13.362;2022-12-16T17:06:44;-2.50;99.90
37268;DHT22;23154;52.542;13.362;2022-12-16T17:09:28;-2.40;99.90
37268;DHT22;23154;52.542;13.362;2022-12-16T17:12:22;-2.40;99.90
37268;DHT22;23154;52.542;13.362;2022-12-16T17:17:57;-2.40;99.90
37268;DHT22;23154;52.542;13.362;2022-12-16T17:20:41;-2.40;99.90
37268;DHT22;23154;52.542;13.362;2022-12-16T17:23:25;-2.40;99.90
37268;DHT22;23154;52.542;13.362;2022-12-16T17:26:11;-2.40;99.90
37268;DHT22;23154;52.542;13.362;2022-12-16T17:28:56;-2.40;99.90
37268;DHT22;23154;52.542;13.362;2022-12-16T17:31:42;-2.40;99.90
37268;DHT22;23154;52.542;13.362;2022-12-16T17:34:26;-2.40;99.90
37268;DHT22;23154;52.542;13.362;2022-12-16T17:37:10;-2.50;99.90
37268;DHT22;23154;52.542;13.362;2022-12-16T17:39:54;-2.50;99.90
37268;DHT22;23154;52.542;13.362;2022-12-16T17:42:39;-2.60;99.90
37268;DHT22;23154;52.542;13.362;2022-12-16T17:45:23;-2.50;99.90
37268;DHT22;23154;52.542;13.362;2022-12-16T17:48:07;-2.50;99.90
37268;DHT22;23154;52.542;13.362;2022-12-16T17:50:52;-2.40;99.90
37268;DHT22;23154;52.542;13.362;2022-12-16T17:53:36;-2.50;99.90
37268;DHT22;23154;52.542;13.362;2022-12-16T17:56:20;-2.50;99.90
37268;DHT22;23154;52.542;13.362;2022-12-16T17:59:04;-2.50;99.90
37268;DHT22;23154;52.542;13.362;2022-12-16T18:01:49;-2.40;99.90
37268;DHT22;23154;52.542;13.362;2022-12-16T18:04:33;-2.40;99.90
37268;DHT22;23154;52.542;13.362;2022-12-16T18:07:17;-2.40;99.90
37268;DHT22;23154;52.542;13.362;2022-12-16T18:10:01;-2.40;99.90
37268;DHT22;23154;52.542;13.362;2022-12-16T18:12:46;-2.40;99.90
37268;DHT22;23154;52.542;13.362;2022-12-16T18:15:30;-2.50;99.90
37268;DHT22;23154;52.542;13.362;2022-12-16T18:18:14;-2.50;99.90
37268;DHT22;23154;52.542;13.362;2022-12-16T18:21:09;-2.40;99.90
37268;DHT22;23154;52.542;13.362;2022-12-16T18:23:53;-2.40;99.90
37268;DHT22;23154;52.542;13.362;2022-12-16T18:26:37;-2.50;99.90
37268;DHT22;23154;52.542;13.362;2022-12-16T18:29:21;-2.50;99.90
37268;DHT22;23154;52.542;13.362;2022-12-16T18:32:06;-2.50;99.90
37268;DHT22;23154;52.542;13.362;2022-12-16T18:34:50;-2.40;99.90
37268;DHT22;23154;52.542;13.362;2022-12-16T18:37:34;-2.40;99.90
37268;DHT22;23154;52.542;13.362;2022-12-16T18:40:18;-2.40;99.90
37268;DHT22;23154;52.542;13.362;2022-12-16T18:43:03;-2.40;99.90
37268;DHT22;23154;52.542;13.362;2022-12-16T18:45:51;-2.40;99.90
37268;DHT22;23154;52.542;13.362;2022-12-16T18:48:35;-2.50;99.90
37268;DHT22;23154;52.542;13.362;2022-12-16T18:51:19;-2.50;99.90
37268;DHT22;23154;52.542;13.362;2022-12-16T18:54:03;-2.50;99.90
37268;DHT22;23154;52.542;13.362;2022-12-16T18:56:48;-2.40;99.90
37268;DHT22;23154;52.542;13.362;2022-12-16T18:59:32;-2.40;99.90
37268;DHT22;23154;52.542;13.362;2022-12-16T19:02:16;-2.40;99.90
37268;DHT22;23154;52.542;13.362;2022-12-16T19:05:00;-2.40;99.90
37268;DHT22;23154;52.542;13.362;2022-12-16T19:07:45;-2.40;99.90
37268;DHT22;23154;52.542;13.362;2022-12-16T19:10:29;-2.30;99.90